Time;durP1;ratioP1;P1;durP2;ratioP2;P2;SDS_P1;SDS_P2;PMS_P1;PMS_P2;Temp;Humidity;BMP_temperature;BMP_pressure;BME280_temperature;BME280_humidity;BME280_pressure;Samples;Min_cycle;Max_cycle;Signal;HPM_P1;HPM_P2
2023/08/18 00:01:19;;;;;;;;;;;18.20;89.00;;;;;;4983471;28;19918;-88
2023/08/18 00:03:44;;;;;;;;;;;18.10;89.20;;;;;;4986789;28;19914;-88
2023/08/18 00:06:10;;;;;;;;;;;18.10;89.40;;;;;;4992638;28;19910;-88
2023/08/18 00:08:35;;;;;;;;;;;18.10;89.50;;;;;;4978851;28;19910;-88
2023/08/18 00:11:01;;;;;;;;;;;18.10;89.60;;;;;;4984845;28;19988;-88
2023/08/18 00:13:26;;;;;;;;;;;18.10;89.90;;;;;;4986323;28;19925;-88
2023/08/18 00:15:52;;;;;;;;;;;18.10;90.00;;;;;;4988114;28;19910;-88
2023/08/18 00:18:17;;;;;;;;;;;18.00;90.30;;;;;;4985255;28;20029;-87
2023/08/18 00:20:43;;;;;;;;;;;17.90;90.50;;;;;;4992937;28;19910;-88
2023/08/18 00:23:09;;;;;;;;;;;18.00;90.50;;;;;;4985559;28;19918;-88
2023/08/18 00:25:37;;;;;;;;;;;18.00;90.70;;;;;;4992568;28;20276;-88
2023/08/18 00:28:02;;;;;;;;;;;18.00;90.70;;;;;;4992874;28;20000;-89
2023/08/18 00:30:28;;;;;;;;;;;18.00;90.80;;;;;;4995872;28;19956;-87
2023/08/18 00:32:53;;;;;;;;;;;17.90;90.80;;;;;;4986034;28;20021;-87
2023/08/18 00:35:19;;;;;;;;;;;18.00;90.90;;;;;;4983981;28;19913;-87
2023/08/18 00:37:45;;;;;;;;;;;18.00;91.00;;;;;;4988646;28;19910;-88
2023/08/18 00:40:11;;;;;;;;;;;18.00;90.90;;;;;;4993131;28;19916;-87
2023/08/18 00:42:36;;;;;;;;;;;18.00;91.00;;;;;;4979487;28;19984;-87
2023/08/18 00:45:02;;;;;;;;;;;18.00;91.10;;;;;;4984338;28;20458;-89
2023/08/18 00:47:29;;;;;;;;;;;17.90;91.20;;;;;;4986038;28;20001;-88
2023/08/18 00:49:55;;;;;;;;;;;17.90;91.20;;;;;;4989148;28;19909;-88
2023/08/18 00:52:20;;;;;;;;;;;18.00;91.30;;;;;;4983656;28;19976;-88
2023/08/18 00:54:47;;;;;;;;;;;18.00;91.20;;;;;;4986738;28;20005;-88
2023/08/18 00:57:12;;;;;;;;;;;18.00;91.30;;;;;;4994385;28;19914;-88
2023/08/18 00:59:38;;;;;;;;;;;18.10;90.80;;;;;;4984993;28;19996;-87
2023/08/18 01:02:04;;;;;;;;;;;18.10;90.90;;;;;;4993000;28;19914;-88
2023/08/18 01:04:30;;;;;;;;;;;18.10;91.00;;;;;;4975701;28;19910;-88
2023/08/18 01:06:56;;;;;;;;;;;18.10;91.00;;;;;;4980545;28;19910;-88
2023/08/18 01:09:22;;;;;;;;;;;18.00;91.20;;;;;;4988249;28;19933;-88
2023/08/18 01:11:54;;;;;;;;;;;18.00;91.50;;;;;;4975895;28;19914;-88
2023/08/18 01:14:38;;;;;;;;;;;18.00;91.50;;;;;;4988365;28;19949;-88
2023/08/18 01:17:11;;;;;;;;;;;18.00;91.60;;;;;;4984054;28;19914;-88
2023/08/18 01:19:37;;;;;;;;;;;18.00;91.60;;;;;;4985114;28;19945;-88
2023/08/18 01:22:02;;;;;;;;;;;18.00;91.70;;;;;;5011144;28;19918;-88
2023/08/18 01:24:28;;;;;;;;;;;18.00;91.80;;;;;;4994090;28;19918;-88
2023/08/18 01:26:54;;;;;;;;;;;18.00;92.00;;;;;;4987566;28;19952;-88
2023/08/18 01:29:22;;;;;;;;;;;18.00;92.00;;;;;;4983906;28;19911;-89
2023/08/18 01:31:51;;;;;;;;;;;17.90;91.90;;;;;;4979432;28;19957;-88
2023/08/18 01:34:18;;;;;;;;;;;18.00;92.10;;;;;;4976233;28;20339;-87
2023/08/18 01:36:43;;;;;;;;;;;18.00;92.10;;;;;;4986865;28;19968;-88
2023/08/18 01:39:09;;;;;;;;;;;18.00;92.20;;;;;;4983979;28;19914;-87
2023/08/18 01:41:35;;;;;;;;;;;17.90;92.00;;;;;;4984302;28;19925;-88
2023/08/18 01:44:01;;;;;;;;;;;18.10;92.10;;;;;;4988710;28;19921;-88
2023/08/18 01:46:26;;;;;;;;;;;18.00;92.00;;;;;;4990086;28;19948;-88
2023/08/18 01:48:52;;;;;;;;;;;18.00;92.00;;;;;;4973215;28;20391;-88
2023/08/18 01:51:17;;;;;;;;;;;18.00;92.30;;;;;;4984612;28;19920;-87
2023/08/18 01:53:42;;;;;;;;;;;18.00;92.00;;;;;;4980077;28;19914;-88
2023/08/18 01:56:08;;;;;;;;;;;18.10;91.60;;;;;;4989618;28;19917;-88
2023/08/18 01:58:33;;;;;;;;;;;18.10;91.70;;;;;;4987261;28;19924;-88
2023/08/18 02:00:59;;;;;;;;;;;18.10;92.10;;;;;;4979654;28;20013;-88
2023/08/18 02:03:25;;;;;;;;;;;18.10;92.10;;;;;;4975718;28;19910;-88
2023/08/18 02:05:57;;;;;;;;;;;18.10;91.90;;;;;;4986183;28;19914;-88
2023/08/18 02:08:22;;;;;;;;;;;18.00;92.30;;;;;;4987241;28;20342;-88
2023/08/18 02:10:48;;;;;;;;;;;18.00;92.30;;;;;;4982928;28;19926;-87
2023/08/18 02:13:14;;;;;;;;;;;18.00;92.30;;;;;;4991997;28;19917;-88
2023/08/18 02:15:39;;;;;;;;;;;18.10;92.10;;;;;;4995628;28;19910;-88
2023/08/18 02:18:05;;;;;;;;;;;18.10;92.20;;;;;;4995539;28;20299;-87
2023/08/18 02:20:30;;;;;;;;;;;18.00;92.30;;;;;;4985152;28;19911;-87
2023/08/18 02:22:56;;;;;;;;;;;17.90;92.30;;;;;;4995272;28;19920;-87
2023/08/18 02:25:22;;;;;;;;;;;17.80;92.40;;;;;;4989503;28;19921;-87
2023/08/18 02:27:48;;;;;;;;;;;17.90;92.70;;;;;;4988730;28;20260;-88
2023/08/18 02:30:13;;;;;;;;;;;17.90;92.80;;;;;;4994698;28;19946;-88
2023/08/18 02:32:39;;;;;;;;;;;17.90;92.70;;;;;;4995432;28;19918;-87
2023/08/18 02:35:05;;;;;;;;;;;18.00;92.70;;;;;;4989089;28;20276;-89
2023/08/18 02:37:30;;;;;;;;;;;18.00;92.40;;;;;;4985864;28;20431;-87
2023/08/18 02:39:55;;;;;;;;;;;17.90;92.60;;;;;;4989544;28;19996;-88
2023/08/18 02:42:21;;;;;;;;;;;17.90;92.60;;;;;;4994169;28;20334;-87
2023/08/18 02:44:46;;;;;;;;;;;17.90;92.50;;;;;;4997145;28;19913;-87
2023/08/18 02:47:13;;;;;;;;;;;17.90;92.50;;;;;;5004896;28;19910;-88
2023/08/18 02:49:38;;;;;;;;;;;17.80;92.50;;;;;;4995068;28;20000;-88
2023/08/18 02:52:04;;;;;;;;;;;17.80;92.70;;;;;;4988060;28;20011;-88
2023/08/18 02:54:29;;;;;;;;;;;17.80;92.90;;;;;;4987259;28;20391;-88
2023/08/18 02:56:55;;;;;;;;;;;17.80;92.60;;;;;;4988098;28;19910;-87
2023/08/18 02:59:20;;;;;;;;;;;17.90;92.50;;;;;;4977252;28;19910;-87
2023/08/18 03:01:46;;;;;;;;;;;17.80;92.60;;;;;;4983503;28;19918;-88
2023/08/18 03:04:14;;;;;;;;;;;17.80;92.70;;;;;;4995709;28;19918;-88
2023/08/18 03:06:39;;;;;;;;;;;17.80;92.70;;;;;;4978508;28;20447;-88
2023/08/18 03:09:05;;;;;;;;;;;17.80;92.70;;;;;;4978770;28;19910;-87
2023/08/18 03:11:30;;;;;;;;;;;17.80;92.80;;;;;;4993802;28;19922;-87
2023/08/18 03:13:56;;;;;;;;;;;17.80;92.60;;;;;;4992915;28;19914;-88
2023/08/18 03:16:21;;;;;;;;;;;17.80;92.80;;;;;;4993678;28;19933;-87
2023/08/18 03:18:47;;;;;;;;;;;17.70;92.80;;;;;;4981474;28;19910;-88
2023/08/18 03:21:12;;;;;;;;;;;17.60;93.00;;;;;;4982644;28;19910;-88
2023/08/18 03:23:38;;;;;;;;;;;17.70;92.90;;;;;;4986349;28;19910;-88
2023/08/18 03:26:04;;;;;;;;;;;17.60;92.90;;;;;;4981922;28;19917;-87
2023/08/18 03:28:35;;;;;;;;;;;17.60;93.00;;;;;;4986164;28;19958;-87
2023/08/18 03:31:02;;;;;;;;;;;17.60;92.80;;;;;;4986568;28;19910;-88
2023/08/18 03:33:28;;;;;;;;;;;17.60;92.90;;;;;;4979492;28;20424;-88
2023/08/18 03:35:54;;;;;;;;;;;17.60;92.80;;;;;;4983946;28;19910;-88
2023/08/18 03:38:20;;;;;;;;;;;17.70;92.90;;;;;;4983403;28;20287;-88
2023/08/18 03:40:45;;;;;;;;;;;17.60;92.50;;;;;;4993904;28;19960;-88
2023/08/18 03:43:11;;;;;;;;;;;17.60;92.80;;;;;;4985706;28;19965;-88
2023/08/18 03:45:37;;;;;;;;;;;17.60;92.90;;;;;;4993240;28;19914;-88
2023/08/18 03:48:02;;;;;;;;;;;17.50;92.90;;;;;;4995613;28;19910;-88
2023/08/18 03:50:28;;;;;;;;;;;17.50;93.00;;;;;;4995463;28;19922;-88
2023/08/18 03:52:55;;;;;;;;;;;17.50;93.10;;;;;;4986325;28;19918;-88
2023/08/18 03:55:20;;;;;;;;;;;17.50;93.10;;;;;;4992495;28;20048;-88
2023/08/18 03:57:46;;;;;;;;;;;17.50;93.10;;;;;;4993495;28;19949;-88
2023/08/18 04:00:11;;;;;;;;;;;17.50;93.00;;;;;;4993906;28;19995;-88
2023/08/18 04:02:37;;;;;;;;;;;17.50;93.00;;;;;;4985548;28;19922;-88
2023/08/18 04:05:02;;;;;;;;;;;17.50;93.00;;;;;;4987508;28;19985;-88
2023/08/18 04:07:30;;;;;;;;;;;17.50;93.00;;;;;;4982528;28;20410;-87
2023/08/18 04:09:55;;;;;;;;;;;17.60;93.00;;;;;;4994098;28;19918;-88
2023/08/18 04:12:21;;;;;;;;;;;17.60;92.70;;;;;;4990866;28;19921;-89
2023/08/18 04:14:46;;;;;;;;;;;17.50;92.60;;;;;;4986950;28;19985;-88
2023/08/18 04:17:12;;;;;;;;;;;17.50;92.80;;;;;;4986214;28;20005;-88
2023/08/18 04:19:37;;;;;;;;;;;17.50;92.70;;;;;;4981163;28;19953;-88
2023/08/18 04:22:03;;;;;;;;;;;17.50;92.70;;;;;;4983741;28;20336;-88
2023/08/18 04:24:28;;;;;;;;;;;17.50;92.70;;;;;;4981072;28;20418;-88
2023/08/18 04:26:59;;;;;;;;;;;17.50;93.00;;;;;;4990867;28;19936;-88
2023/08/18 04:29:25;;;;;;;;;;;17.50;92.90;;;;;;4982854;28;19918;-88
2023/08/18 04:31:51;;;;;;;;;;;17.50;93.00;;;;;;4985738;28;20381;-88
2023/08/18 04:34:17;;;;;;;;;;;17.50;93.10;;;;;;4975467;28;19981;-88
2023/08/18 04:36:42;;;;;;;;;;;17.50;92.90;;;;;;4987381;28;19914;-88
2023/08/18 04:39:09;;;;;;;;;;;17.50;92.90;;;;;;4980705;28;19919;-88
2023/08/18 04:41:35;;;;;;;;;;;17.50;92.80;;;;;;4984110;28;19922;-87
2023/08/18 04:44:00;;;;;;;;;;;17.60;92.80;;;;;;4992955;28;19910;-87
2023/08/18 04:46:26;;;;;;;;;;;17.60;92.90;;;;;;4985154;28;20000;-88
2023/08/18 04:48:51;;;;;;;;;;;17.60;92.90;;;;;;4992737;28;19917;-89
2023/08/18 04:51:16;;;;;;;;;;;17.60;92.90;;;;;;4984216;28;19914;-88
2023/08/18 04:53:42;;;;;;;;;;;17.60;92.80;;;;;;5002862;28;19914;-88
2023/08/18 04:56:09;;;;;;;;;;;17.60;92.70;;;;;;4987280;28;20204;-87
2023/08/18 04:58:34;;;;;;;;;;;17.70;92.70;;;;;;4984530;28;19953;-88
2023/08/18 05:01:00;;;;;;;;;;;17.70;92.80;;;;;;4987547;28;19949;-88
2023/08/18 05:03:26;;;;;;;;;;;17.70;92.80;;;;;;4978839;28;20295;-88
2023/08/18 05:06:07;;;;;;;;;;;17.80;92.30;;;;;;4990198;28;19914;-87
2023/08/18 05:08:33;;;;;;;;;;;17.90;92.00;;;;;;4988431;28;19921;-86
2023/08/18 05:11:05;;;;;;;;;;;18.00;91.90;;;;;;4985197;28;19921;-87
2023/08/18 05:13:31;;;;;;;;;;;18.00;92.00;;;;;;4986228;28;19918;-86
2023/08/18 05:15:57;;;;;;;;;;;17.90;91.40;;;;;;4986026;28;19913;-87
2023/08/18 05:18:23;;;;;;;;;;;17.80;91.70;;;;;;4988415;28;20296;-85
2023/08/18 05:20:48;;;;;;;;;;;17.70;92.00;;;;;;4984153;28;19914;-89
2023/08/18 05:23:16;;;;;;;;;;;17.60;92.10;;;;;;4982120;28;19918;-86
2023/08/18 05:25:45;;;;;;;;;;;17.60;92.40;;;;;;4983751;28;19914;-85
2023/08/18 05:28:12;;;;;;;;;;;17.60;92.50;;;;;;4989362;28;20045;-87
2023/08/18 05:30:37;;;;;;;;;;;17.60;92.70;;;;;;4985145;28;19984;-86
2023/08/18 05:33:02;;;;;;;;;;;17.60;92.80;;;;;;4988133;28;20367;-85
2023/08/18 05:35:28;;;;;;;;;;;17.60;92.70;;;;;;4988171;28;19941;-85
2023/08/18 05:37:53;;;;;;;;;;;17.60;92.80;;;;;;4991822;28;19913;-85
2023/08/18 05:40:19;;;;;;;;;;;17.60;92.80;;;;;;4995596;28;19909;-87
2023/08/18 05:42:44;;;;;;;;;;;17.60;93.00;;;;;;4995556;28;19917;-87
2023/08/18 05:45:10;;;;;;;;;;;17.60;93.00;;;;;;4987703;28;19949;-86
2023/08/18 05:47:36;;;;;;;;;;;17.60;92.80;;;;;;4984828;28;19921;-86
2023/08/18 05:50:02;;;;;;;;;;;17.60;92.70;;;;;;4981566;28;19910;-86
2023/08/18 05:52:28;;;;;;;;;;;17.60;92.80;;;;;;4978722;28;20008;-85
2023/08/18 05:54:53;;;;;;;;;;;17.60;92.80;;;;;;4989972;28;20376;-83
2023/08/18 05:57:18;;;;;;;;;;;17.60;92.80;;;;;;4991381;28;20398;-88
2023/08/18 05:59:44;;;;;;;;;;;17.60;92.70;;;;;;4982212;28;19914;-88
2023/08/18 06:02:09;;;;;;;;;;;17.60;92.90;;;;;;4984023;28;20338;-88
2023/08/18 06:04:35;;;;;;;;;;;17.60;92.90;;;;;;4992495;28;20375;-88
2023/08/18 06:07:00;;;;;;;;;;;17.60;92.70;;;;;;4995877;28;19934;-81
2023/08/18 06:09:25;;;;;;;;;;;17.60;92.60;;;;;;4994890;28;19914;-88
2023/08/18 06:11:51;;;;;;;;;;;17.60;92.60;;;;;;4988347;28;20009;-89
2023/08/18 06:14:17;;;;;;;;;;;17.70;92.60;;;;;;4987299;28;19913;-89
2023/08/18 06:16:42;;;;;;;;;;;17.60;92.40;;;;;;4986764;28;20163;-88
2023/08/18 06:19:08;;;;;;;;;;;17.70;92.60;;;;;;4977986;28;19977;-88
2023/08/18 06:21:34;;;;;;;;;;;17.70;92.60;;;;;;4991382;28;19918;-89
2023/08/18 06:24:01;;;;;;;;;;;17.70;92.50;;;;;;4975142;28;20009;-87
2023/08/18 06:26:26;;;;;;;;;;;17.70;92.50;;;;;;4991924;28;19914;-87
2023/08/18 06:28:51;;;;;;;;;;;17.70;92.50;;;;;;4989080;28;19910;-89
2023/08/18 06:31:17;;;;;;;;;;;17.70;92.40;;;;;;4991087;28;19968;-89
2023/08/18 06:33:42;;;;;;;;;;;17.60;92.50;;;;;;4984979;28;20006;-88
2023/08/18 06:36:08;;;;;;;;;;;17.60;92.60;;;;;;4995677;28;19914;-89
2023/08/18 06:38:33;;;;;;;;;;;17.80;92.30;;;;;;4991910;28;19918;-88
2023/08/18 06:40:59;;;;;;;;;;;17.80;92.20;;;;;;4975056;28;19916;-88
2023/08/18 06:43:24;;;;;;;;;;;17.70;92.30;;;;;;4983100;28;20053;-87
2023/08/18 06:45:50;;;;;;;;;;;17.70;92.50;;;;;;4983350;28;19921;-86
2023/08/18 06:48:15;;;;;;;;;;;17.70;92.60;;;;;;4974992;28;19965;-86
2023/08/18 06:50:41;;;;;;;;;;;17.80;92.70;;;;;;4983989;28;19949;-86
2023/08/18 06:53:07;;;;;;;;;;;17.80;92.50;;;;;;4978427;28;19985;-86
2023/08/18 06:55:32;;;;;;;;;;;17.80;92.50;;;;;;4973965;28;19930;-86
2023/08/18 06:57:57;;;;;;;;;;;17.80;92.50;;;;;;4981126;28;19910;-86
2023/08/18 07:00:23;;;;;;;;;;;17.90;92.70;;;;;;4984613;28;19910;-85
2023/08/18 07:02:49;;;;;;;;;;;18.00;92.50;;;;;;4985582;28;19918;-86
2023/08/18 07:05:16;;;;;;;;;;;18.00;92.40;;;;;;4978473;28;19910;-85
2023/08/18 07:07:41;;;;;;;;;;;18.00;92.30;;;;;;4981390;28;19914;-86
2023/08/18 07:10:07;;;;;;;;;;;18.10;91.90;;;;;;4990285;28;19925;-86
2023/08/18 07:12:33;;;;;;;;;;;18.00;91.80;;;;;;4990611;28;19910;-85
2023/08/18 07:14:58;;;;;;;;;;;18.00;92.00;;;;;;4973997;28;19923;-86
2023/08/18 07:17:24;;;;;;;;;;;18.00;92.00;;;;;;4989302;28;19914;-86
2023/08/18 07:19:49;;;;;;;;;;;18.00;92.10;;;;;;4974143;28;19910;-87
2023/08/18 07:22:15;;;;;;;;;;;18.10;92.00;;;;;;4989620;28;19918;-87
2023/08/18 07:24:40;;;;;;;;;;;18.10;91.80;;;;;;4993679;28;19952;-87
2023/08/18 07:27:05;;;;;;;;;;;18.10;92.10;;;;;;4995047;28;19916;-86
2023/08/18 07:29:33;;;;;;;;;;;18.10;92.20;;;;;;4983749;28;19961;-86
2023/08/18 07:31:59;;;;;;;;;;;18.10;92.10;;;;;;4980858;28;19924;-86
2023/08/18 07:34:25;;;;;;;;;;;18.10;92.10;;;;;;4993140;28;19914;-86
2023/08/18 07:36:51;;;;;;;;;;;18.20;92.20;;;;;;4993392;28;19910;-87
2023/08/18 07:39:16;;;;;;;;;;;18.30;92.00;;;;;;4985973;28;19937;-86
2023/08/18 07:41:42;;;;;;;;;;;18.30;91.60;;;;;;4990103;28;19915;-86
2023/08/18 07:44:08;;;;;;;;;;;18.40;91.70;;;;;;4983088;28;19945;-86
2023/08/18 07:46:34;;;;;;;;;;;18.50;91.40;;;;;;4982625;28;19939;-86
2023/08/18 07:48:59;;;;;;;;;;;18.50;91.60;;;;;;4992295;28;19983;-86
2023/08/18 07:51:24;;;;;;;;;;;18.60;91.50;;;;;;4976759;28;20364;-86
2023/08/18 07:53:51;;;;;;;;;;;18.60;91.40;;;;;;4975847;28;20705;-85
2023/08/18 07:56:16;;;;;;;;;;;18.60;91.20;;;;;;4988140;28;19914;-86
2023/08/18 07:58:41;;;;;;;;;;;18.70;91.10;;;;;;4980430;28;19914;-86
2023/08/18 08:01:07;;;;;;;;;;;18.60;90.60;;;;;;4990696;28;19984;-85
2023/08/18 08:03:32;;;;;;;;;;;18.60;90.80;;;;;;4977358;28;19921;-88
2023/08/18 08:05:58;;;;;;;;;;;18.60;90.80;;;;;;4991560;28;19918;-87
2023/08/18 08:08:23;;;;;;;;;;;18.60;90.60;;;;;;4990853;28;20008;-87
2023/08/18 08:10:49;;;;;;;;;;;18.60;90.70;;;;;;4982674;28;19976;-89
2023/08/18 08:13:15;;;;;;;;;;;18.60;90.20;;;;;;4994494;28;19914;-87
2023/08/18 08:15:45;;;;;;;;;;;18.60;90.60;;;;;;4977745;28;20439;-87
2023/08/18 08:18:17;;;;;;;;;;;18.60;90.50;;;;;;4981192;28;19949;-88
2023/08/18 08:20:42;;;;;;;;;;;18.60;90.50;;;;;;4982818;28;19932;-87
2023/08/18 08:23:08;;;;;;;;;;;18.70;90.50;;;;;;4997889;28;19914;-88
2023/08/18 08:25:34;;;;;;;;;;;18.70;90.50;;;;;;4989378;28;19972;-88
2023/08/18 08:27:59;;;;;;;;;;;18.80;90.60;;;;;;4998396;28;19910;-88
2023/08/18 08:30:25;;;;;;;;;;;18.90;90.20;;;;;;4979239;28;19933;-88
2023/08/18 08:32:50;;;;;;;;;;;18.90;90.20;;;;;;4976727;28;20016;-87
2023/08/18 08:35:16;;;;;;;;;;;19.00;90.20;;;;;;4987144;28;19918;-89
2023/08/18 08:37:42;;;;;;;;;;;19.00;90.20;;;;;;4982260;28;19918;-88
2023/08/18 08:40:13;;;;;;;;;;;19.10;90.40;;;;;;4994066;28;19956;-87
2023/08/18 08:42:38;;;;;;;;;;;19.30;90.30;;;;;;4993342;28;19929;-89
2023/08/18 08:45:05;;;;;;;;;;;19.40;89.80;;;;;;4997205;28;19914;-93
2023/08/18 08:47:30;;;;;;;;;;;19.50;89.60;;;;;;4986749;28;20303;-88
2023/08/18 08:49:59;;;;;;;;;;;19.60;89.10;;;;;;4991326;28;19914;-90
2023/08/18 08:52:25;;;;;;;;;;;19.70;88.60;;;;;;4995714;28;20008;-88
2023/08/18 08:54:54;;;;;;;;;;;19.60;88.00;;;;;;4991801;28;19977;-89
2023/08/18 08:57:21;;;;;;;;;;;19.70;88.20;;;;;;4999211;28;19964;-88
2023/08/18 08:59:46;;;;;;;;;;;19.80;88.50;;;;;;4998254;28;19949;-88
2023/08/18 09:02:11;;;;;;;;;;;19.90;88.60;;;;;;5002289;28;19926;-88
2023/08/18 09:04:37;;;;;;;;;;;20.00;88.30;;;;;;5000304;28;19933;-88
2023/08/18 09:07:03;;;;;;;;;;;20.00;87.50;;;;;;5001165;28;19961;-88
2023/08/18 09:09:29;;;;;;;;;;;19.90;87.20;;;;;;4986951;28;19913;-89
2023/08/18 09:11:59;;;;;;;;;;;19.80;87.20;;;;;;4982571;28;20339;-88
2023/08/18 09:14:25;;;;;;;;;;;19.90;87.80;;;;;;4989739;28;19910;-88
2023/08/18 09:16:52;;;;;;;;;;;20.00;87.80;;;;;;4997386;28;19964;-87
2023/08/18 09:19:18;;;;;;;;;;;20.00;87.60;;;;;;4994681;28;20387;-87
2023/08/18 09:21:43;;;;;;;;;;;20.10;87.90;;;;;;4977027;28;19918;-87
2023/08/18 09:24:09;;;;;;;;;;;20.20;87.60;;;;;;4997175;28;19910;-88
2023/08/18 09:26:34;;;;;;;;;;;20.30;87.20;;;;;;4982648;28;20005;-87
2023/08/18 09:29:00;;;;;;;;;;;20.50;86.30;;;;;;4987558;28;20384;-87
2023/08/18 09:31:25;;;;;;;;;;;20.50;86.30;;;;;;4996569;28;19948;-89
2023/08/18 09:33:51;;;;;;;;;;;20.40;86.10;;;;;;5000113;28;19914;-87
2023/08/18 09:36:18;;;;;;;;;;;20.40;86.10;;;;;;4998408;28;20023;-87
2023/08/18 09:38:44;;;;;;;;;;;20.30;86.60;;;;;;4996826;28;20011;-88
2023/08/18 09:41:10;;;;;;;;;;;20.40;86.60;;;;;;4994577;28;19925;-87
2023/08/18 09:43:40;;;;;;;;;;;20.50;86.30;;;;;;4996851;28;20009;-87
2023/08/18 09:46:06;;;;;;;;;;;20.50;86.30;;;;;;4995597;28;19920;-90
2023/08/18 09:48:35;;;;;;;;;;;20.50;85.90;;;;;;4996885;28;19947;-87
2023/08/18 09:51:01;;;;;;;;;;;20.70;86.40;;;;;;4991504;28;19910;-87
2023/08/18 09:53:29;;;;;;;;;;;20.90;85.10;;;;;;4993580;28;19914;-88
2023/08/18 09:55:57;;;;;;;;;;;21.10;85.10;;;;;;4994372;28;19910;-88
2023/08/18 09:58:39;;;;;;;;;;;21.10;84.90;;;;;;4995567;28;19910;-88
2023/08/18 10:01:06;;;;;;;;;;;21.50;82.90;;;;;;4995190;28;19918;-89
2023/08/18 10:03:36;;;;;;;;;;;21.50;83.00;;;;;;4990749;28;19917;-89
2023/08/18 10:06:02;;;;;;;;;;;21.60;83.30;;;;;;4994330;28;19914;-89
2023/08/18 10:08:27;;;;;;;;;;;21.60;81.80;;;;;;4989128;28;19913;-87
2023/08/18 10:10:53;;;;;;;;;;;21.60;82.10;;;;;;4983477;28;19933;-88
2023/08/18 10:13:18;;;;;;;;;;;21.40;83.30;;;;;;4993000;28;19914;-93
2023/08/18 10:15:45;;;;;;;;;;;21.30;84.10;;;;;;4995675;28;19917;-92
2023/08/18 10:18:11;;;;;;;;;;;21.20;84.50;;;;;;4995886;28;20004;-90
2023/08/18 10:20:52;;;;;;;;;;;21.40;84.00;;;;;;4992365;28;19914;-91
2023/08/18 10:23:19;;;;;;;;;;;21.50;83.90;;;;;;4992548;28;19958;-94
2023/08/18 10:25:45;;;;;;;;;;;21.50;84.50;;;;;;4995446;28;19915;-92
2023/08/18 10:28:18;;;;;;;;;;;21.40;84.20;;;;;;4999359;28;20430;-91
2023/08/18 10:30:49;;;;;;;;;;;21.60;83.50;;;;;;4992311;28;19913;-92
2023/08/18 10:33:34;;;;;;;;;;;21.80;84.60;;;;;;4992265;28;20408;-90
2023/08/18 10:36:03;;;;;;;;;;;21.90;84.10;;;;;;4995853;28;19910;-92
2023/08/18 10:38:44;;;;;;;;;;;21.90;83.10;;;;;;4989207;28;20299;-90
2023/08/18 10:41:21;;;;;;;;;;;21.90;83.10;;;;;;5000166;28;19918;-94
2023/08/18 10:44:00;;;;;;;;;;;21.60;83.60;;;;;;5001088;28;19918;-95
2023/08/18 10:46:43;;;;;;;;;;;21.60;84.10;;;;;;5013333;28;19925;-95
2023/08/18 10:49:11;;;;;;;;;;;21.50;84.10;;;;;;4997315;28;20016;-93
2023/08/18 10:51:40;;;;;;;;;;;21.50;84.80;;;;;;4996690;28;19911;-90
2023/08/18 10:54:07;;;;;;;;;;;21.70;83.60;;;;;;4991199;28;20075;-88
2023/08/18 10:56:32;;;;;;;;;;;21.60;84.90;;;;;;4988673;28;19914;-88
2023/08/18 10:59:27;;;;;;;;;;;21.50;84.80;;;;;;4987408;28;19939;-89
2023/08/18 11:02:03;;;;;;;;;;;21.60;85.20;;;;;;4989999;28;20008;-90
2023/08/18 11:04:29;;;;;;;;;;;21.70;85.00;;;;;;4990326;28;19922;-89
2023/08/18 11:06:57;;;;;;;;;;;21.80;84.30;;;;;;4992940;28;19924;-90
2023/08/18 11:12:44;;;;;;;;;;;21.70;84.80;;;;;;4985521;28;20098;-91
2023/08/18 11:15:10;;;;;;;;;;;21.80;84.40;;;;;;4987105;28;19917;-90
2023/08/18 11:17:36;;;;;;;;;;;21.80;85.40;;;;;;4986356;28;19913;-89
2023/08/18 11:20:16;;;;;;;;;;;21.90;85.70;;;;;;4993023;28;19921;-88
2023/08/18 11:22:47;;;;;;;;;;;21.80;85.70;;;;;;4995274;28;19914;-91
2023/08/18 11:25:14;;;;;;;;;;;22.00;86.30;;;;;;4991981;28;19929;-89
2023/08/18 11:27:44;;;;;;;;;;;22.10;84.90;;;;;;4992211;28;20011;-90
2023/08/18 11:30:14;;;;;;;;;;;22.20;84.50;;;;;;4995313;28;20293;-90
2023/08/18 11:32:40;;;;;;;;;;;22.30;83.90;;;;;;4992557;28;19929;-88
2023/08/18 11:35:07;;;;;;;;;;;22.20;84.00;;;;;;4987941;28;19930;-89
2023/08/18 11:37:40;;;;;;;;;;;22.20;84.10;;;;;;4992378;28;20001;-87
2023/08/18 11:40:10;;;;;;;;;;;22.30;83.70;;;;;;4993361;28;19956;-88
2023/08/18 11:42:38;;;;;;;;;;;22.30;84.30;;;;;;4993085;28;19918;-87
2023/08/18 11:45:07;;;;;;;;;;;22.40;83.50;;;;;;4994354;28;20482;-87
2023/08/18 11:47:33;;;;;;;;;;;22.30;83.60;;;;;;4992478;28;19910;-88
2023/08/18 11:50:00;;;;;;;;;;;22.40;83.80;;;;;;4992667;28;19920;-87
2023/08/18 11:52:38;;;;;;;;;;;22.40;84.00;;;;;;4987074;28;20328;-88
2023/08/18 11:55:04;;;;;;;;;;;22.60;82.90;;;;;;4993243;28;19910;-87
2023/08/18 11:57:29;;;;;;;;;;;22.60;82.90;;;;;;4983955;28;19916;-88
2023/08/18 11:59:55;;;;;;;;;;;22.70;82.80;;;;;;4992298;28;19916;-87
2023/08/18 12:02:20;;;;;;;;;;;22.60;83.00;;;;;;4994133;28;20375;-88
2023/08/18 12:04:51;;;;;;;;;;;22.70;83.10;;;;;;4993881;28;20295;-87
2023/08/18 12:07:17;;;;;;;;;;;22.80;84.40;;;;;;4994790;28;19914;-88
2023/08/18 12:09:42;;;;;;;;;;;22.90;83.80;;;;;;4992456;28;20335;-87
2023/08/18 12:12:12;;;;;;;;;;;22.90;83.80;;;;;;4993006;28;20677;-87
2023/08/18 12:14:37;;;;;;;;;;;22.90;84.20;;;;;;4993421;28;20391;-87
2023/08/18 12:17:05;;;;;;;;;;;23.00;84.10;;;;;;4994259;28;19916;-88
2023/08/18 12:19:31;;;;;;;;;;;23.00;83.60;;;;;;4993156;28;19914;-87
2023/08/18 12:21:57;;;;;;;;;;;23.10;83.00;;;;;;4993796;28;20327;-88
2023/08/18 12:27:13;;;;;;;;;;;23.30;83.20;;;;;;4978928;28;20422;-87
2023/08/18 12:29:39;;;;;;;;;;;23.20;83.40;;;;;;4990742;28;19989;-88
2023/08/18 12:32:12;;;;;;;;;;;23.30;84.50;;;;;;4999574;28;19957;-91
2023/08/18 12:34:37;;;;;;;;;;;23.50;83.80;;;;;;4991752;28;20385;-91
2023/08/18 12:37:12;;;;;;;;;;;23.50;83.30;;;;;;4991743;28;20008;-94
2023/08/18 12:39:47;;;;;;;;;;;23.60;83.80;;;;;;4999687;28;19934;-92
2023/08/18 12:42:13;;;;;;;;;;;23.60;84.20;;;;;;4999485;28;20459;-91
2023/08/18 12:44:38;;;;;;;;;;;23.60;83.10;;;;;;4998276;28;19964;-91
2023/08/18 12:47:04;;;;;;;;;;;23.60;83.30;;;;;;4998006;28;19960;-90
2023/08/18 12:49:37;;;;;;;;;;;23.70;82.50;;;;;;4995875;28;19933;-92
2023/08/18 12:52:10;;;;;;;;;;;23.80;82.20;;;;;;4995312;28;19953;-92
2023/08/18 12:54:36;;;;;;;;;;;23.80;82.40;;;;;;4999500;28;19921;-91
2023/08/18 12:57:33;;;;;;;;;;;23.80;82.70;;;;;;5004261;28;19917;-92
2023/08/18 13:00:02;;;;;;;;;;;23.80;81.80;;;;;;4998527;28;19941;-92
2023/08/18 13:02:27;;;;;;;;;;;23.80;82.10;;;;;;4997325;28;19964;-92
2023/08/18 13:05:19;;;;;;;;;;;24.00;82.70;;;;;;4997729;28;19910;-92
2023/08/18 13:07:48;;;;;;;;;;;24.00;82.80;;;;;;4998417;28;19976;-92
2023/08/18 13:10:23;;;;;;;;;;;24.10;81.80;;;;;;4994742;28;19918;-92
2023/08/18 13:12:49;;;;;;;;;;;24.20;82.00;;;;;;4995674;28;19917;-90
2023/08/18 13:15:14;;;;;;;;;;;24.30;80.70;;;;;;4998105;28;19917;-91
2023/08/18 13:17:40;;;;;;;;;;;24.30;81.00;;;;;;4997122;28;19914;-91
2023/08/18 13:20:44;;;;;;;;;;;24.30;82.40;;;;;;4989259;28;19914;-91
2023/08/18 13:23:27;;;;;;;;;;;24.30;81.10;;;;;;4915682;29;19919;-93
2023/08/18 13:26:30;;;;;;;;;;;24.30;80.90;;;;;;4946566;29;19910;-92
2023/08/18 13:29:04;;;;;;;;;;;24.50;80.50;;;;;;4985353;28;19916;-92
2023/08/18 13:32:04;;;;;;;;;;;24.50;82.50;;;;;;4993791;28;19914;-93
2023/08/18 13:34:29;;;;;;;;;;;24.60;81.00;;;;;;4982089;28;19914;-93
2023/08/18 13:37:06;;;;;;;;;;;24.60;80.80;;;;;;4985530;28;19917;-93
2023/08/18 13:39:40;;;;;;;;;;;24.70;80.90;;;;;;4994827;28;19917;-92
2023/08/18 13:42:13;;;;;;;;;;;24.80;80.50;;;;;;4990143;28;19914;-92
2023/08/18 13:44:39;;;;;;;;;;;24.80;80.20;;;;;;4986328;28;19910;-92
2023/08/18 13:47:04;;;;;;;;;;;25.10;79.00;;;;;;4997141;28;19917;-92
2023/08/18 13:49:50;;;;;;;;;;;25.10;80.40;;;;;;4989145;28;19960;-92
2023/08/18 13:52:16;;;;;;;;;;;25.20;78.60;;;;;;4998181;28;20013;-93
2023/08/18 13:54:42;;;;;;;;;;;25.10;79.10;;;;;;4987443;28;19918;-92
2023/08/18 13:57:14;;;;;;;;;;;25.10;78.80;;;;;;4982382;28;19957;-93
2023/08/18 13:59:44;;;;;;;;;;;25.10;78.90;;;;;;4994425;28;19910;-92
2023/08/18 14:05:17;;;;;;;;;;;25.10;78.70;;;;;;4985568;28;19916;-93
2023/08/18 14:07:43;;;;;;;;;;;25.10;78.50;;;;;;4996153;28;19918;-93
2023/08/18 14:10:21;;;;;;;;;;;25.10;79.10;;;;;;4979121;28;19918;-93
2023/08/18 14:12:56;;;;;;;;;;;25.20;80.20;;;;;;4987481;28;19988;-92
2023/08/18 14:15:31;;;;;;;;;;;25.30;78.90;;;;;;4988413;28;19914;-92
2023/08/18 14:17:57;;;;;;;;;;;25.30;79.30;;;;;;4991170;28;19914;-91
2023/08/18 14:20:44;;;;;;;;;;;25.30;79.70;;;;;;4989817;28;20000;-93
2023/08/18 14:23:12;;;;;;;;;;;25.50;78.30;;;;;;4986796;28;19976;-93
2023/08/18 14:25:46;;;;;;;;;;;25.60;77.70;;;;;;4995768;28;19910;-92
2023/08/18 14:28:11;;;;;;;;;;;25.80;76.70;;;;;;4990601;28;19967;-93